CheckWX is a tool to help pilots better visualize weather data.  It is not intended as a substitute for an official pre-flight weather briefing.

09:05:47 UTC

KPQI METAR
Northern Maine Regional Arpt at Presque Is Airport
Presque Isle, Maine, USA
Current

10 mins ago

KPQI 220856Z AUTO 00000KT 10SM CLR M21/M23 A3004 RMK AO2 SLP220 T12061228 51035 FZRANO
Observed
Feb-22 @ 08:56 UTC
Visibility
10 SM
Flight Rules
VFR
Cloud Levels
  • Clear skies
Temperature
-21°C / -6°F
Dewpoint
-23°C / -9°F
Humidity
84%
Altimeter
30.04" Hg
Pressure
1022 hPa
Previous

1 hour ago

KPQI 220756Z AUTO 00000KT 10SM CLR M18/M20 A3000 RMK AO2 SLP208 T11781200 FZRANO
Observed
Feb-22 @ 07:56 UTC
Visibility
10 SM
Flight Rules
VFR
Cloud Levels
  • Clear skies
Temperature
-18°C / -0°F
Dewpoint
-20°C / -4°F
Humidity
84%
Altimeter
30" Hg
Pressure
1020.8 hPa
Previous

2 hours ago

KPQI 220656Z AUTO 00000KT 10SM CLR M15/M17 A2998 RMK AO2 SLP199 T11501167 FZRANO
Observed
Feb-22 @ 06:56 UTC
Visibility
10 SM
Flight Rules
VFR
Cloud Levels
  • Clear skies
Temperature
-15°C / 5°F
Dewpoint
-17°C / 1°F
Humidity
85%
Altimeter
29.98" Hg
Pressure
1019.9 hPa